Time;durP1;ratioP1;P1;durP2;ratioP2;P2;SDS_P1;SDS_P2;PMS_P1;PMS_P2;Temp;Humidity;BMP_temperature;BMP_pressure;BME280_temperature;BME280_humidity;BME280_pressure;Samples;Min_cycle;Max_cycle;Signal;HPM_P1;HPM_P2
2021/03/31 00:02:05;;;;;;;;;;;10.20;88.80;;;;;;5020892;28;88754;-65
2021/03/31 00:04:31;;;;;;;;;;;10.20;89.20;;;;;;5020415;28;88084;-65
2021/03/31 00:06:57;;;;;;;;;;;10.20;89.20;;;;;;5019923;28;87233;-65
2021/03/31 00:09:22;;;;;;;;;;;10.20;89.10;;;;;;5019146;28;87224;-65
2021/03/31 00:11:48;;;;;;;;;;;10.20;89.10;;;;;;5021480;28;87216;-65
2021/03/31 00:14:14;;;;;;;;;;;10.20;88.90;;;;;;5020151;28;87393;-65
2021/03/31 00:16:40;;;;;;;;;;;10.20;89.30;;;;;;5020693;28;86463;-65
2021/03/31 00:19:05;;;;;;;;;;;10.10;89.00;;;;;;5020827;28;88727;-65
2021/03/31 00:21:31;;;;;;;;;;;10.10;88.80;;;;;;5017523;28;88849;-65
2021/03/31 00:23:56;;;;;;;;;;;10.10;89.50;;;;;;5015530;28;89035;-65
2021/03/31 00:26:22;;;;;;;;;;;10.10;89.00;;;;;;5017197;28;87148;-65
2021/03/31 00:28:48;;;;;;;;;;;10.10;89.20;;;;;;5018436;28;87123;-65
2021/03/31 00:31:13;;;;;;;;;;;10.10;89.10;;;;;;5018466;28;88264;-65
2021/03/31 00:33:39;;;;;;;;;;;10.10;88.80;;;;;;5023124;28;87225;-65
2021/03/31 00:36:05;;;;;;;;;;;10.00;88.90;;;;;;5020328;28;88353;-65
2021/03/31 00:38:31;;;;;;;;;;;10.00;88.80;;;;;;5019560;28;88318;-65
2021/03/31 00:40:57;;;;;;;;;;;10.00;89.10;;;;;;5017154;28;87812;-65
2021/03/31 00:43:23;;;;;;;;;;;10.00;88.90;;;;;;5016087;28;87157;-65
2021/03/31 00:45:49;;;;;;;;;;;10.00;89.10;;;;;;5016275;28;87113;-65
2021/03/31 00:48:16;;;;;;;;;;;10.00;88.70;;;;;;5016662;28;88132;-65
2021/03/31 00:50:43;;;;;;;;;;;9.90;88.50;;;;;;5016162;28;87708;-65
2021/03/31 00:53:09;;;;;;;;;;;9.90;88.90;;;;;;5016004;28;88992;-65
2021/03/31 00:55:35;;;;;;;;;;;9.90;89.00;;;;;;5022563;28;87657;-65
2021/03/31 00:58:00;;;;;;;;;;;9.90;89.00;;;;;;5020092;28;87138;-65
2021/03/31 01:00:26;;;;;;;;;;;9.90;88.90;;;;;;5019088;28;87193;-65
2021/03/31 01:02:51;;;;;;;;;;;9.80;88.50;;;;;;5019026;28;87387;-65
2021/03/31 01:05:18;;;;;;;;;;;9.90;89.00;;;;;;5020644;28;87483;-65
2021/03/31 01:07:45;;;;;;;;;;;9.80;88.60;;;;;;5019536;28;88210;-65
2021/03/31 01:10:11;;;;;;;;;;;9.80;89.10;;;;;;5019434;28;89469;-65
2021/03/31 01:12:46;;;;;;;;;;;9.80;89.00;;;;;;5019714;28;88874;-65
2021/03/31 01:15:16;;;;;;;;;;;9.80;89.00;;;;;;5019547;28;88786;-65
2021/03/31 01:17:57;;;;;;;;;;;9.80;88.90;;;;;;5016735;28;87159;-65
2021/03/31 01:20:31;;;;;;;;;;;9.80;89.00;;;;;;5018361;28;87482;-65
2021/03/31 01:23:02;;;;;;;;;;;9.80;88.90;;;;;;5016737;28;88455;-65
2021/03/31 01:25:30;;;;;;;;;;;9.70;88.70;;;;;;5016266;28;87894;-65
2021/03/31 01:28:03;;;;;;;;;;;9.70;88.40;;;;;;5019320;28;87427;-64
2021/03/31 01:30:51;;;;;;;;;;;9.70;88.60;;;;;;5018516;28;87005;-65
2021/03/31 01:33:33;;;;;;;;;;;9.70;88.80;;;;;;5012566;27;87192;-65
2021/03/31 01:35:59;;;;;;;;;;;9.70;88.70;;;;;;5016119;28;87821;-65
2021/03/31 01:38:26;;;;;;;;;;;9.60;88.90;;;;;;5022064;28;89063;-65
2021/03/31 01:40:52;;;;;;;;;;;9.60;88.50;;;;;;5019217;28;87593;-65
2021/03/31 01:43:20;;;;;;;;;;;9.70;88.80;;;;;;5019154;28;87638;-65
2021/03/31 01:45:47;;;;;;;;;;;9.60;88.50;;;;;;5020706;28;87843;-65
2021/03/31 01:48:14;;;;;;;;;;;9.60;88.30;;;;;;5023185;28;87303;-65
2021/03/31 01:50:43;;;;;;;;;;;9.60;88.80;;;;;;5021544;28;87653;-65
2021/03/31 01:53:08;;;;;;;;;;;9.60;88.60;;;;;;5019511;28;87150;-65
2021/03/31 01:55:35;;;;;;;;;;;9.60;88.40;;;;;;5020857;28;87011;-65
2021/03/31 01:58:01;;;;;;;;;;;9.50;88.50;;;;;;5020236;28;88154;-65
2021/03/31 02:00:29;;;;;;;;;;;9.50;88.40;;;;;;5023317;28;87365;-65
2021/03/31 02:02:55;;;;;;;;;;;9.50;88.50;;;;;;5017931;28;88612;-64
2021/03/31 02:05:24;;;;;;;;;;;9.50;88.30;;;;;;5018353;28;87167;-65
2021/03/31 02:07:50;;;;;;;;;;;9.40;88.40;;;;;;5019144;28;87135;-64
2021/03/31 02:10:17;;;;;;;;;;;9.50;88.30;;;;;;5019154;28;89251;-64
2021/03/31 02:12:43;;;;;;;;;;;9.40;88.80;;;;;;5022508;28;87158;-65
2021/03/31 02:15:09;;;;;;;;;;;9.40;88.60;;;;;;5022327;28;87699;-65
2021/03/31 02:17:36;;;;;;;;;;;9.40;88.60;;;;;;5019730;28;88513;-65
2021/03/31 02:20:02;;;;;;;;;;;9.40;88.80;;;;;;5018413;28;86423;-65
2021/03/31 02:22:28;;;;;;;;;;;9.40;88.70;;;;;;5023541;28;88268;-65
2021/03/31 02:24:54;;;;;;;;;;;9.40;88.50;;;;;;5023036;28;87841;-65
2021/03/31 02:27:20;;;;;;;;;;;9.40;88.40;;;;;;5020708;28;88123;-65
2021/03/31 02:29:46;;;;;;;;;;;9.30;88.30;;;;;;5019871;28;87603;-65
2021/03/31 02:32:13;;;;;;;;;;;9.30;88.80;;;;;;5019491;28;87126;-65
2021/03/31 02:34:39;;;;;;;;;;;9.30;88.60;;;;;;5019145;28;87196;-65
2021/03/31 02:37:05;;;;;;;;;;;9.30;88.80;;;;;;5017342;28;88733;-65
2021/03/31 02:39:31;;;;;;;;;;;9.30;88.40;;;;;;5021116;28;88792;-65
2021/03/31 02:41:58;;;;;;;;;;;9.30;88.30;;;;;;5021089;28;87197;-65
2021/03/31 02:44:24;;;;;;;;;;;9.20;88.50;;;;;;5024152;28;88005;-65
2021/03/31 02:46:51;;;;;;;;;;;9.20;88.30;;;;;;5021309;28;87191;-65
2021/03/31 02:49:17;;;;;;;;;;;9.20;88.50;;;;;;5018127;28;88545;-65
2021/03/31 02:51:43;;;;;;;;;;;9.20;88.40;;;;;;5017414;28;88698;-65
2021/03/31 02:54:09;;;;;;;;;;;9.20;88.50;;;;;;5022456;28;88507;-65
2021/03/31 02:56:37;;;;;;;;;;;9.20;88.50;;;;;;5021068;28;89565;-65
2021/03/31 02:59:03;;;;;;;;;;;9.10;88.70;;;;;;5019294;28;87118;-65
2021/03/31 03:01:29;;;;;;;;;;;9.10;88.40;;;;;;5019937;28;87281;-65
2021/03/31 03:03:58;;;;;;;;;;;9.10;88.40;;;;;;5020969;28;87218;-64
2021/03/31 03:06:24;;;;;;;;;;;9.10;88.50;;;;;;5020828;28;87134;-65
2021/03/31 03:08:51;;;;;;;;;;;9.10;88.20;;;;;;5018042;28;87594;-65
2021/03/31 03:11:17;;;;;;;;;;;9.10;88.40;;;;;;5021145;28;87172;-65
2021/03/31 03:13:43;;;;;;;;;;;9.00;88.20;;;;;;5021581;28;87224;-65
2021/03/31 03:16:08;;;;;;;;;;;9.00;88.30;;;;;;5021054;28;88538;-65
2021/03/31 03:18:34;;;;;;;;;;;9.00;88.50;;;;;;5019715;28;88423;-64
2021/03/31 03:21:00;;;;;;;;;;;9.00;88.60;;;;;;5016682;28;87230;-65
2021/03/31 03:23:25;;;;;;;;;;;9.00;88.20;;;;;;5018950;28;88730;-65
2021/03/31 03:25:51;;;;;;;;;;;9.00;88.40;;;;;;5024444;28;87264;-65
2021/03/31 03:28:18;;;;;;;;;;;9.00;88.40;;;;;;5020512;28;87614;-65
2021/03/31 03:30:44;;;;;;;;;;;8.90;88.50;;;;;;5020647;28;87186;-65
2021/03/31 03:33:10;;;;;;;;;;;8.90;88.50;;;;;;5021225;28;86845;-65
2021/03/31 03:35:35;;;;;;;;;;;8.90;88.40;;;;;;5019336;28;89713;-65
2021/03/31 03:38:01;;;;;;;;;;;8.90;88.40;;;;;;5018883;28;87238;-65
2021/03/31 03:40:27;;;;;;;;;;;8.90;88.40;;;;;;5017587;28;88162;-65
2021/03/31 03:42:52;;;;;;;;;;;8.90;88.40;;;;;;5016486;28;88147;-65
2021/03/31 03:45:20;;;;;;;;;;;8.90;88.50;;;;;;5018465;28;88690;-65
2021/03/31 03:47:46;;;;;;;;;;;8.80;88.00;;;;;;5022989;28;87249;-65
2021/03/31 03:50:13;;;;;;;;;;;8.80;88.30;;;;;;5021460;28;87177;-65
2021/03/31 03:52:38;;;;;;;;;;;8.80;88.50;;;;;;5020741;28;87906;-64
2021/03/31 03:55:04;;;;;;;;;;;8.80;88.50;;;;;;5020332;28;88070;-65
2021/03/31 03:57:30;;;;;;;;;;;8.80;88.60;;;;;;5021683;28;86460;-65
2021/03/31 03:59:55;;;;;;;;;;;8.80;88.50;;;;;;5020123;28;88331;-65
2021/03/31 04:02:21;;;;;;;;;;;8.70;88.60;;;;;;5019318;28;88363;-65
2021/03/31 04:04:47;;;;;;;;;;;8.70;88.40;;;;;;5017272;28;88397;-64
2021/03/31 04:07:13;;;;;;;;;;;8.70;88.50;;;;;;5016780;28;87776;-65
2021/03/31 04:09:42;;;;;;;;;;;8.70;88.60;;;;;;5020644;28;87569;-65
2021/03/31 04:12:09;;;;;;;;;;;8.70;88.50;;;;;;5020505;28;88103;-65
2021/03/31 04:14:36;;;;;;;;;;;8.70;88.30;;;;;;5020413;28;87957;-65
2021/03/31 04:17:02;;;;;;;;;;;8.70;88.40;;;;;;5019269;28;87136;-65
2021/03/31 04:19:28;;;;;;;;;;;8.70;88.60;;;;;;5019112;28;87552;-65
2021/03/31 04:21:53;;;;;;;;;;;8.60;88.60;;;;;;5019301;28;86821;-65
2021/03/31 04:24:19;;;;;;;;;;;8.60;88.30;;;;;;5020541;28;87172;-65
2021/03/31 04:26:46;;;;;;;;;;;8.60;87.80;;;;;;5019145;28;88463;-65
2021/03/31 04:29:12;;;;;;;;;;;8.60;88.70;;;;;;5019827;28;88233;-65
2021/03/31 04:31:38;;;;;;;;;;;8.60;88.50;;;;;;5020797;28;87201;-65
2021/03/31 04:34:07;;;;;;;;;;;8.60;88.70;;;;;;5016769;28;88286;-65
2021/03/31 04:36:33;;;;;;;;;;;8.60;88.40;;;;;;5018241;28;87181;-65
2021/03/31 04:39:02;;;;;;;;;;;8.60;88.30;;;;;;5019085;28;87628;-65
2021/03/31 04:41:27;;;;;;;;;;;8.50;88.30;;;;;;5015942;28;89512;-65
2021/03/31 04:43:53;;;;;;;;;;;8.50;88.50;;;;;;5017599;28;87150;-65
2021/03/31 04:46:18;;;;;;;;;;;8.50;88.60;;;;;;5019087;28;86435;-65
2021/03/31 04:48:44;;;;;;;;;;;8.50;88.70;;;;;;5017849;28;87654;-65
2021/03/31 04:51:09;;;;;;;;;;;8.50;88.60;;;;;;5017555;28;87135;-65
2021/03/31 04:53:35;;;;;;;;;;;8.50;88.70;;;;;;5019054;28;88202;-65
2021/03/31 04:56:01;;;;;;;;;;;8.50;88.40;;;;;;5018096;28;87213;-65
2021/03/31 04:58:26;;;;;;;;;;;8.50;88.60;;;;;;5017466;28;90523;-65
2021/03/31 05:00:52;;;;;;;;;;;8.40;88.50;;;;;;5019359;28;88065;-65
2021/03/31 05:03:18;;;;;;;;;;;8.40;88.70;;;;;;5020086;28;87118;-65
2021/03/31 05:05:44;;;;;;;;;;;8.40;88.80;;;;;;5019046;28;87984;-65
2021/03/31 05:08:10;;;;;;;;;;;8.40;88.30;;;;;;5017826;28;88087;-65
2021/03/31 05:10:35;;;;;;;;;;;8.40;88.50;;;;;;5018306;28;86431;-65
2021/03/31 05:13:01;;;;;;;;;;;8.40;88.60;;;;;;5022121;28;87210;-65
2021/03/31 05:15:27;;;;;;;;;;;8.40;88.60;;;;;;5023756;28;87341;-65
2021/03/31 05:17:53;;;;;;;;;;;8.40;88.50;;;;;;5019385;28;88221;-65
2021/03/31 05:20:18;;;;;;;;;;;8.40;88.50;;;;;;5020174;28;87516;-65
2021/03/31 05:22:44;;;;;;;;;;;8.40;88.50;;;;;;5021837;28;87148;-65
2021/03/31 05:25:10;;;;;;;;;;;8.30;88.30;;;;;;5022599;28;87470;-65
2021/03/31 05:27:36;;;;;;;;;;;8.30;88.30;;;;;;5021291;28;87212;-65
2021/03/31 05:30:05;;;;;;;;;;;8.30;88.70;;;;;;5020417;28;87213;-65
2021/03/31 05:32:31;;;;;;;;;;;8.30;88.70;;;;;;5020746;28;87438;-65
2021/03/31 05:34:57;;;;;;;;;;;8.30;88.20;;;;;;5022697;28;87488;-65
2021/03/31 05:37:22;;;;;;;;;;;8.30;88.40;;;;;;5019604;28;87131;-65
2021/03/31 05:39:48;;;;;;;;;;;8.30;88.20;;;;;;5020433;28;87290;-65
2021/03/31 05:42:15;;;;;;;;;;;8.30;88.30;;;;;;5021388;28;88133;-65
2021/03/31 05:44:41;;;;;;;;;;;8.30;88.40;;;;;;5020964;28;88275;-65
2021/03/31 05:47:07;;;;;;;;;;;8.30;88.40;;;;;;5021741;28;87674;-65
2021/03/31 05:49:33;;;;;;;;;;;8.30;88.40;;;;;;5022408;28;87167;-65
2021/03/31 05:51:58;;;;;;;;;;;8.30;88.50;;;;;;5021498;28;87202;-65
2021/03/31 05:54:27;;;;;;;;;;;8.30;88.50;;;;;;5022212;28;88698;-65
2021/03/31 05:56:53;;;;;;;;;;;8.30;88.30;;;;;;5023135;28;87115;-65
2021/03/31 05:59:18;;;;;;;;;;;8.20;88.30;;;;;;5020675;28;88512;-65
2021/03/31 06:01:45;;;;;;;;;;;8.30;88.30;;;;;;5021472;28;87197;-65
2021/03/31 06:04:10;;;;;;;;;;;8.20;88.10;;;;;;5021592;28;87190;-65
2021/03/31 06:06:36;;;;;;;;;;;8.20;88.10;;;;;;5020506;28;89075;-65
2021/03/31 06:09:08;;;;;;;;;;;8.20;87.90;;;;;;5020618;28;87124;-65
2021/03/31 06:11:51;;;;;;;;;;;8.20;88.10;;;;;;5019185;28;87568;-65
2021/03/31 06:14:33;;;;;;;;;;;8.20;88.70;;;;;;5019026;28;88738;-65
2021/03/31 06:17:06;;;;;;;;;;;8.20;88.10;;;;;;5022941;28;88793;-65
2021/03/31 06:19:34;;;;;;;;;;;8.30;88.20;;;;;;5023526;28;87500;-65
2021/03/31 06:24:44;;;;;;;;;;;8.20;88.00;;;;;;5017985;28;88894;-65
2021/03/31 06:27:10;;;;;;;;;;;8.20;88.10;;;;;;5022383;28;87794;-65
2021/03/31 06:29:38;;;;;;;;;;;8.20;88.00;;;;;;5021382;28;87186;-65
2021/03/31 06:32:13;;;;;;;;;;;8.20;87.70;;;;;;5017739;28;88057;-65
2021/03/31 06:34:49;;;;;;;;;;;8.20;87.70;;;;;;5017450;28;88594;-65
2021/03/31 06:37:21;;;;;;;;;;;8.20;87.80;;;;;;5017874;28;87142;-65
2021/03/31 06:39:50;;;;;;;;;;;8.20;88.00;;;;;;5020919;28;88975;-65
2021/03/31 06:42:21;;;;;;;;;;;8.20;87.50;;;;;;5022446;28;88646;-65
2021/03/31 06:44:58;;;;;;;;;;;8.20;87.50;;;;;;5020070;28;87419;-65
2021/03/31 06:49:59;;;;;;;;;;;8.20;87.10;;;;;;5018798;28;86371;-65
2021/03/31 06:52:25;;;;;;;;;;;8.20;87.00;;;;;;5018227;28;87158;-65
2021/03/31 06:54:58;;;;;;;;;;;8.20;87.00;;;;;;5018318;28;87539;-65
2021/03/31 06:57:30;;;;;;;;;;;8.20;87.20;;;;;;5019327;28;88752;-65
2021/03/31 07:00:09;;;;;;;;;;;8.20;87.10;;;;;;5022403;28;88804;-65
2021/03/31 07:02:35;;;;;;;;;;;8.20;87.00;;;;;;5018481;28;87958;-65
2021/03/31 07:05:01;;;;;;;;;;;8.20;86.90;;;;;;5022036;28;87162;-65
2021/03/31 07:07:34;;;;;;;;;;;8.20;87.00;;;;;;5019043;28;89567;-65
2021/03/31 07:10:08;;;;;;;;;;;8.20;86.90;;;;;;5018111;28;87174;-65
2021/03/31 07:12:37;;;;;;;;;;;8.30;87.00;;;;;;5019298;28;87468;-65
2021/03/31 07:15:03;;;;;;;;;;;8.30;87.10;;;;;;5021220;28;87273;-65
2021/03/31 07:17:30;;;;;;;;;;;8.20;87.00;;;;;;5020914;28;87183;-65
2021/03/31 07:19:56;;;;;;;;;;;8.20;86.90;;;;;;5018911;28;87161;-65
2021/03/31 07:22:22;;;;;;;;;;;8.20;87.00;;;;;;5016717;28;88613;-65
2021/03/31 07:24:48;;;;;;;;;;;8.20;87.00;;;;;;5016706;28;87608;-65
2021/03/31 07:27:15;;;;;;;;;;;8.30;87.20;;;;;;5022801;28;89103;-65
2021/03/31 07:30:05;;;;;;;;;;;8.30;87.20;;;;;;5019657;28;87169;-65
2021/03/31 07:32:30;;;;;;;;;;;8.30;86.90;;;;;;5021129;28;88160;-65
2021/03/31 07:34:56;;;;;;;;;;;8.30;86.90;;;;;;5020371;28;89326;-65
2021/03/31 07:37:21;;;;;;;;;;;8.30;86.90;;;;;;5019936;28;87140;-65
2021/03/31 07:39:48;;;;;;;;;;;8.30;86.90;;;;;;5020012;28;86998;-65
2021/03/31 07:42:13;;;;;;;;;;;8.30;87.10;;;;;;5019164;28;88105;-65
2021/03/31 07:44:40;;;;;;;;;;;8.30;86.90;;;;;;5018880;28;87171;-65
2021/03/31 07:47:06;;;;;;;;;;;8.30;86.90;;;;;;5019872;28;88193;-65
2021/03/31 07:49:33;;;;;;;;;;;8.30;87.20;;;;;;5021314;28;87182;-65
2021/03/31 07:52:03;;;;;;;;;;;8.30;86.80;;;;;;5018565;28;87570;-66
2021/03/31 07:54:29;;;;;;;;;;;8.30;86.80;;;;;;5019951;28;88392;-65
2021/03/31 07:56:58;;;;;;;;;;;8.30;86.60;;;;;;5020785;28;87207;-65
2021/03/31 07:59:25;;;;;;;;;;;8.30;86.70;;;;;;5018161;28;87537;-65
2021/03/31 08:01:54;;;;;;;;;;;8.30;87.00;;;;;;5017209;28;87793;-65
2021/03/31 08:04:21;;;;;;;;;;;8.30;87.10;;;;;;5020396;28;86483;-65
2021/03/31 08:06:49;;;;;;;;;;;8.30;87.20;;;;;;5019391;28;88286;-65
2021/03/31 08:09:17;;;;;;;;;;;8.30;87.20;;;;;;5020264;28;87761;-65
2021/03/31 08:11:47;;;;;;;;;;;8.30;87.20;;;;;;5018736;28;89384;-65
2021/03/31 08:14:14;;;;;;;;;;;8.30;87.30;;;;;;5017069;28;87633;-65
2021/03/31 08:16:41;;;;;;;;;;;8.30;87.20;;;;;;5019251;28;87958;-65
2021/03/31 08:19:15;;;;;;;;;;;8.30;87.10;;;;;;5019755;28;88761;-65
2021/03/31 08:21:41;;;;;;;;;;;8.30;87.20;;;;;;5017273;28;89558;-65
2021/03/31 08:24:07;;;;;;;;;;;8.30;87.30;;;;;;5017401;28;87119;-65
2021/03/31 08:26:33;;;;;;;;;;;8.40;87.00;;;;;;5016026;28;87150;-66
2021/03/31 08:28:59;;;;;;;;;;;8.30;87.20;;;;;;5021184;28;87677;-65
2021/03/31 08:31:27;;;;;;;;;;;8.30;87.20;;;;;;5022574;28;87161;-65
2021/03/31 08:33:53;;;;;;;;;;;8.40;87.30;;;;;;5017301;28;88664;-65
2021/03/31 08:36:18;;;;;;;;;;;8.40;87.00;;;;;;5018230;28;88067;-65
2021/03/31 08:38:54;;;;;;;;;;;8.40;86.80;;;;;;5019969;28;88751;-66
2021/03/31 08:41:21;;;;;;;;;;;8.40;86.80;;;;;;5019914;28;88710;-65
2021/03/31 08:43:47;;;;;;;;;;;8.40;86.90;;;;;;5020808;28;87192;-65
2021/03/31 08:46:25;;;;;;;;;;;8.40;86.70;;;;;;5019561;28;88951;-65
2021/03/31 08:48:51;;;;;;;;;;;8.40;86.70;;;;;;5017911;28;87917;-65
2021/03/31 08:51:18;;;;;;;;;;;8.40;86.70;;;;;;5019605;28;87133;-65
2021/03/31 08:53:43;;;;;;;;;;;8.40;86.30;;;;;;5022338;28;86929;-65
2021/03/31 08:56:15;;;;;;;;;;;8.40;86.50;;;;;;5020436;28;87250;-65
2021/03/31 08:58:41;;;;;;;;;;;8.40;86.20;;;;;;5019982;28;87138;-65
2021/03/31 09:01:06;;;;;;;;;;;8.40;86.20;;;;;;5018331;28;89551;-65
2021/03/31 09:03:32;;;;;;;;;;;8.40;86.30;;;;;;5016562;28;87174;-65
2021/03/31 09:05:59;;;;;;;;;;;8.40;86.00;;;;;;5016625;28;87170;-65
2021/03/31 09:08:25;;;;;;;;;;;8.40;85.90;;;;;;5015998;28;88732;-65
2021/03/31 09:10:52;;;;;;;;;;;8.40;86.00;;;;;;5015922;28;87319;-65
2021/03/31 09:13:25;;;;;;;;;;;8.50;86.10;;;;;;5016587;28;88523;-65
2021/03/31 09:15:59;;;;;;;;;;;8.50;85.90;;;;;;5021154;28;87388;-65
2021/03/31 09:18:25;;;;;;;;;;;8.50;86.10;;;;;;5018032;28;90802;-65
2021/03/31 09:20:50;;;;;;;;;;;8.50;85.60;;;;;;5017858;28;87774;-65
2021/03/31 09:23:20;;;;;;;;;;;8.50;85.80;;;;;;5018914;28;87242;-65
2021/03/31 09:25:55;;;;;;;;;;;8.50;85.80;;;;;;5018934;28;89205;-65
2021/03/31 09:28:21;;;;;;;;;;;8.50;85.60;;;;;;5015591;28;88800;-65
2021/03/31 09:30:49;;;;;;;;;;;8.50;85.90;;;;;;5018591;28;88111;-65
2021/03/31 09:33:15;;;;;;;;;;;8.60;85.80;;;;;;5016576;28;87207;-65
2021/03/31 09:35:40;;;;;;;;;;;8.50;85.80;;;;;;5014919;28;88009;-65
2021/03/31 09:38:06;;;;;;;;;;;8.60;86.10;;;;;;5018932;28;87616;-65
2021/03/31 09:40:33;;;;;;;;;;;8.60;86.10;;;;;;5015323;28;87290;-65
2021/03/31 09:42:59;;;;;;;;;;;8.60;85.60;;;;;;5016954;28;87824;-65
2021/03/31 09:45:26;;;;;;;;;;;8.60;85.90;;;;;;5019618;28;87144;-65
2021/03/31 09:47:51;;;;;;;;;;;8.60;86.10;;;;;;5017803;28;87167;-65
2021/03/31 09:50:17;;;;;;;;;;;8.70;86.20;;;;;;5016944;28;88196;-65
2021/03/31 09:52:43;;;;;;;;;;;8.70;86.20;;;;;;5018366;28;87875;-65
2021/03/31 09:55:08;;;;;;;;;;;8.70;86.00;;;;;;5019175;28;87992;-65
2021/03/31 09:57:35;;;;;;;;;;;8.70;86.10;;;;;;5021805;28;88713;-65
2021/03/31 10:00:02;;;;;;;;;;;8.70;86.30;;;;;;5022474;28;87863;-65
2021/03/31 10:02:28;;;;;;;;;;;8.70;86.20;;;;;;5020952;28;87243;-65
2021/03/31 10:04:58;;;;;;;;;;;8.80;86.20;;;;;;5020434;28;87191;-65
2021/03/31 10:07:23;;;;;;;;;;;8.80;86.20;;;;;;5020934;28;87801;-66
2021/03/31 10:09:50;;;;;;;;;;;8.80;86.20;;;;;;5020180;28;87153;-65
2021/03/31 10:12:32;;;;;;;;;;;8.80;86.10;;;;;;5018255;28;89241;-65
2021/03/31 10:14:59;;;;;;;;;;;8.80;86.10;;;;;;5018980;28;88910;-65
2021/03/31 10:17:26;;;;;;;;;;;8.80;85.80;;;;;;5023243;28;88068;-65
2021/03/31 10:19:51;;;;;;;;;;;8.80;86.00;;;;;;5023898;28;87150;-65
2021/03/31 10:22:18;;;;;;;;;;;8.90;85.90;;;;;;5021610;28;87135;-65
2021/03/31 10:24:47;;;;;;;;;;;8.90;85.60;;;;;;5019782;28;87423;-65
2021/03/31 10:27:14;;;;;;;;;;;8.90;85.90;;;;;;5019966;28;88038;-65
2021/03/31 10:29:47;;;;;;;;;;;8.90;85.50;;;;;;5017861;28;87137;-65
2021/03/31 10:32:16;;;;;;;;;;;8.90;85.60;;;;;;5022300;28;87616;-65
2021/03/31 10:34:51;;;;;;;;;;;8.90;85.50;;;;;;5022148;28;87992;-65
2021/03/31 10:37:32;;;;;;;;;;;8.90;85.60;;;;;;5019523;28;87615;-66
2021/03/31 10:40:22;;;;;;;;;;;8.90;85.50;;;;;;5021129;28;88065;-65
2021/03/31 10:51:10;;;;;;;;;;;9.00;85.40;;;;;;5021769;28;87172;-65
2021/03/31 10:53:38;;;;;;;;;;;9.00;85.50;;;;;;5020630;28;87169;-65
2021/03/31 10:56:04;;;;;;;;;;;9.00;85.20;;;;;;5020369;28;89606;-65
2021/03/31 10:58:29;;;;;;;;;;;9.00;85.00;;;;;;5021980;28;86426;-65
2021/03/31 11:00:55;;;;;;;;;;;9.00;85.30;;;;;;5022067;28;87217;-65
2021/03/31 11:03:21;;;;;;;;;;;9.00;85.30;;;;;;5020147;28;87950;-65
2021/03/31 11:05:47;;;;;;;;;;;9.00;84.90;;;;;;5022679;28;89664;-65
2021/03/31 11:08:12;;;;;;;;;;;9.00;85.10;;;;;;5017050;28;88056;-65
2021/03/31 11:10:38;;;;;;;;;;;9.00;85.30;;;;;;5018158;28;87144;-65
2021/03/31 11:13:04;;;;;;;;;;;9.10;85.40;;;;;;5019737;28;87589;-65
2021/03/31 11:15:29;;;;;;;;;;;9.10;85.20;;;;;;5019887;28;88334;-65
2021/03/31 11:20:45;;;;;;;;;;;9.10;85.20;;;;;;5019737;28;87390;-65
2021/03/31 11:25:56;;;;;;;;;;;9.10;84.90;;;;;;5020793;28;87172;-65
2021/03/31 11:28:22;;;;;;;;;;;9.10;85.00;;;;;;5020868;28;88927;-65
2021/03/31 11:30:48;;;;;;;;;;;9.20;85.10;;;;;;5018398;28;88089;-65
2021/03/31 11:33:14;;;;;;;;;;;9.20;85.10;;;;;;5018994;27;88473;-65
2021/03/31 11:35:40;;;;;;;;;;;9.20;84.80;;;;;;5020134;28;87578;-65
2021/03/31 11:38:05;;;;;;;;;;;9.20;85.10;;;;;;5021361;28;87120;-65
2021/03/31 11:40:31;;;;;;;;;;;9.20;85.00;;;;;;5019895;28;88198;-65
2021/03/31 11:42:57;;;;;;;;;;;9.20;84.70;;;;;;5017965;28;88099;-65
2021/03/31 11:45:23;;;;;;;;;;;9.20;84.70;;;;;;5016630;28;87156;-65
2021/03/31 11:47:49;;;;;;;;;;;9.20;84.60;;;;;;5020599;28;87456;-65
2021/03/31 11:50:14;;;;;;;;;;;9.30;84.70;;;;;;5016148;28;87226;-65
2021/03/31 11:52:40;;;;;;;;;;;9.30;84.60;;;;;;5018702;28;87372;-65
2021/03/31 11:55:06;;;;;;;;;;;9.20;84.00;;;;;;5018598;28;90748;-65
2021/03/31 11:57:32;;;;;;;;;;;9.30;84.40;;;;;;5019783;28;87195;-65
2021/03/31 11:59:58;;;;;;;;;;;9.30;84.20;;;;;;5020387;28;88637;-65
2021/03/31 12:02:23;;;;;;;;;;;9.30;84.40;;;;;;5021017;28;87614;-65
2021/03/31 12:04:49;;;;;;;;;;;9.30;84.30;;;;;;5019080;28;88714;-65
2021/03/31 12:07:15;;;;;;;;;;;9.30;84.00;;;;;;5021358;28;87461;-65
2021/03/31 12:09:41;;;;;;;;;;;9.30;83.70;;;;;;5023451;28;89243;-65
2021/03/31 12:12:08;;;;;;;;;;;9.30;83.80;;;;;;5020829;28;89367;-65
2021/03/31 12:14:34;;;;;;;;;;;9.30;83.80;;;;;;5020146;28;87556;-65
2021/03/31 12:17:00;;;;;;;;;;;9.30;83.80;;;;;;5019871;28;87277;-65
2021/03/31 12:19:25;;;;;;;;;;;9.40;84.00;;;;;;5020630;28;88180;-65
2021/03/31 12:21:53;;;;;;;;;;;9.40;84.40;;;;;;5016600;28;88382;-65
2021/03/31 12:24:20;;;;;;;;;;;9.40;84.50;;;;;;5020229;28;87203;-65
2021/03/31 12:26:45;;;;;;;;;;;9.40;84.00;;;;;;5019453;28;87505;-66
2021/03/31 12:29:11;;;;;;;;;;;9.40;83.80;;;;;;5019929;28;88155;-66
2021/03/31 12:31:36;;;;;;;;;;;9.40;83.80;;;;;;5023370;28;87212;-65
2021/03/31 12:34:02;;;;;;;;;;;9.40;83.50;;;;;;5019043;28;89533;-65
2021/03/31 12:36:28;;;;;;;;;;;9.50;84.20;;;;;;5019233;28;86467;-65
2021/03/31 12:38:54;;;;;;;;;;;9.50;83.80;;;;;;5017015;28;87150;-65
2021/03/31 12:41:19;;;;;;;;;;;9.50;83.90;;;;;;5016742;28;87434;-65
2021/03/31 12:43:45;;;;;;;;;;;9.50;83.90;;;;;;5017583;28;88075;-65
2021/03/31 12:46:10;;;;;;;;;;;9.50;84.00;;;;;;5019413;28;88476;-65
2021/03/31 12:48:37;;;;;;;;;;;9.50;84.00;;;;;;5020158;28;88076;-65
2021/03/31 12:51:06;;;;;;;;;;;9.60;84.20;;;;;;5020241;28;87189;-65
2021/03/31 12:53:36;;;;;;;;;;;9.60;84.00;;;;;;5019311;28;87516;-65
2021/03/31 12:56:02;;;;;;;;;;;9.60;83.90;;;;;;5018713;28;87213;-65
2021/03/31 12:58:28;;;;;;;;;;;9.60;84.00;;;;;;5018421;28;87641;-65
2021/03/31 13:00:54;;;;;;;;;;;9.60;84.20;;;;;;5019284;28;87430;-65
2021/03/31 13:03:19;;;;;;;;;;;9.60;83.90;;;;;;5019483;28;87189;-65
2021/03/31 13:05:45;;;;;;;;;;;9.70;83.90;;;;;;5020384;28;87296;-65
2021/03/31 13:08:13;;;;;;;;;;;9.70;84.20;;;;;;5019249;28;90939;-65
2021/03/31 13:10:40;;;;;;;;;;;9.70;84.20;;;;;;5017282;28;87205;-65
2021/03/31 13:13:22;;;;;;;;;;;9.70;84.10;;;;;;5015812;28;87654;-65
2021/03/31 13:31:44;;;;;;;;;;;9.80;83.90;;;;;;5017214;28;87738;-65
2021/03/31 13:34:16;;;;;;;;;;;9.90;83.80;;;;;;5020912;28;89454;-66
2021/03/31 13:37:08;;;;;;;;;;;9.90;83.90;;;;;;5019434;28;87174;-65
2021/03/31 13:39:36;;;;;;;;;;;9.90;83.70;;;;;;5022982;28;87271;-65
2021/03/31 13:42:02;;;;;;;;;;;9.90;84.80;;;;;;5022573;28;88488;-66
2021/03/31 13:44:28;;;;;;;;;;;10.00;84.00;;;;;;5022804;28;87279;-65
2021/03/31 13:46:57;;;;;;;;;;;9.90;83.80;;;;;;5019620;28;88727;-65
2021/03/31 13:49:34;;;;;;;;;;;10.00;83.60;;;;;;5020614;28;89015;-65
2021/03/31 13:52:08;;;;;;;;;;;10.00;83.90;;;;;;5021244;28;86480;-66
2021/03/31 13:54:47;;;;;;;;;;;10.00;83.70;;;;;;5020461;28;88726;-65
2021/03/31 13:57:17;;;;;;;;;;;10.00;83.80;;;;;;5020714;28;87202;-65
2021/03/31 13:59:42;;;;;;;;;;;10.10;83.80;;;;;;5023831;28;88080;-65
2021/03/31 14:02:08;;;;;;;;;;;10.10;83.50;;;;;;5020651;28;87409;-65
2021/03/31 14:04:33;;;;;;;;;;;10.10;83.60;;;;;;5020048;28;87135;-65
2021/03/31 14:06:59;;;;;;;;;;;10.10;83.90;;;;;;5019426;28;87672;-65
2021/03/31 14:09:25;;;;;;;;;;;10.20;83.60;;;;;;5018496;28;88022;-65
2021/03/31 14:11:51;;;;;;;;;;;10.20;83.70;;;;;;5018608;28;87108;-66
2021/03/31 14:14:18;;;;;;;;;;;10.20;83.90;;;;;;5019315;28;89481;-65
2021/03/31 14:16:54;;;;;;;;;;;10.20;83.70;;;;;;5022456;28;87552;-65
2021/03/31 14:19:19;;;;;;;;;;;10.30;83.80;;;;;;5022304;28;87146;-66
2021/03/31 14:21:45;;;;;;;;;;;10.30;83.80;;;;;;5024302;28;87538;-65
2021/03/31 14:24:11;;;;;;;;;;;10.30;83.70;;;;;;5021345;28;88108;-65
2021/03/31 14:26:36;;;;;;;;;;;10.30;83.70;;;;;;5021321;28;89949;-66
2021/03/31 14:29:02;;;;;;;;;;;10.40;83.80;;;;;;5022325;28;88006;-65
2021/03/31 14:31:27;;;;;;;;;;;10.40;83.70;;;;;;5020135;28;88341;-65
2021/03/31 14:33:53;;;;;;;;;;;10.40;83.70;;;;;;5018395;28;87170;-65
2021/03/31 14:36:18;;;;;;;;;;;10.40;84.00;;;;;;5018905;28;88201;-65
2021/03/31 14:38:44;;;;;;;;;;;10.50;83.60;;;;;;5019265;28;87250;-65
2021/03/31 14:41:09;;;;;;;;;;;10.50;84.00;;;;;;5020820;28;86422;-66
2021/03/31 14:43:35;;;;;;;;;;;10.50;83.70;;;;;;5021397;28;88174;-66
2021/03/31 14:46:01;;;;;;;;;;;10.50;83.50;;;;;;5018992;28;87174;-66
2021/03/31 14:48:26;;;;;;;;;;;10.50;83.70;;;;;;5017527;28;89001;-66
2021/03/31 14:50:52;;;;;;;;;;;10.60;83.70;;;;;;5019765;28;87087;-65
2021/03/31 15:01:19;;;;;;;;;;;10.80;83.60;;;;;;5020172;28;87129;-65
2021/03/31 15:03:45;;;;;;;;;;;10.80;83.70;;;;;;5019051;28;88140;-66
2021/03/31 15:06:10;;;;;;;;;;;10.80;83.60;;;;;;5023161;28;86531;-65
2021/03/31 15:08:36;;;;;;;;;;;10.80;83.20;;;;;;5020784;28;88728;-65
2021/03/31 15:11:02;;;;;;;;;;;10.90;83.60;;;;;;5022381;28;87683;-65
2021/03/31 15:13:27;;;;;;;;;;;10.90;83.50;;;;;;5018328;28;88418;-65